createdAt,value
2022-11-03T07:20:38.729Z,5.50
2022-11-03T07:23:05.813Z,5.37
2022-11-03T07:25:32.641Z,5.77
2022-11-03T07:28:02.146Z,6.60
2022-11-03T07:30:35.249Z,7.80
2022-11-03T07:33:14.772Z,9.97
2022-11-03T07:36:13.191Z,9.67
2022-11-03T07:38:30.729Z,8.17
2022-11-03T07:40:59.135Z,8.33
2022-11-03T07:43:31.752Z,8.70
2022-11-03T07:46:02.440Z,8.67
2022-11-03T07:48:56.996Z,9.20
2022-11-03T07:51:31.216Z,7.27
2022-11-03T07:54:19.962Z,7.60
2022-11-03T07:56:57.288Z,7.60
2022-11-03T07:59:31.146Z,8.13
2022-11-03T08:01:59.026Z,7.93
2022-11-03T08:04:29.325Z,7.77
2022-11-03T08:06:56.753Z,8.07
2022-11-03T08:09:23.888Z,6.47
2022-11-03T08:11:51.443Z,6.90
2022-11-03T08:14:18.496Z,5.77
2022-11-03T08:16:45.521Z,4.73
2022-11-03T08:19:12.610Z,5.30
2022-11-03T08:21:39.934Z,6.13
2022-11-03T08:24:07.481Z,5.53
2022-11-03T08:26:34.686Z,4.87
2022-11-03T08:29:01.962Z,5.00
2022-11-03T08:31:28.871Z,5.90
2022-11-03T08:33:56.157Z,5.60
2022-11-03T08:36:22.978Z,4.50
2022-11-03T08:38:50.162Z,4.87
2022-11-03T08:41:17.396Z,4.83
2022-11-03T08:43:44.658Z,4.87
2022-11-03T08:46:17.821Z,5.53
2022-11-03T08:48:46.066Z,4.70
2022-11-03T08:51:14.657Z,5.10
2022-11-03T08:53:42.753Z,5.10
2022-11-03T08:56:12.577Z,5.50
2022-11-03T08:58:41.008Z,5.90
2022-11-03T09:01:08.263Z,5.70
2022-11-03T09:03:35.630Z,6.10
2022-11-03T09:06:02.932Z,5.90
2022-11-03T09:11:17.272Z,5.53
2022-11-03T09:13:44.463Z,5.10
2022-11-03T09:16:11.645Z,4.37
2022-11-03T09:18:43.542Z,4.07
2022-11-03T09:21:10.746Z,4.50
2022-11-03T09:23:37.957Z,4.67
2022-11-03T09:26:06.799Z,4.93
2022-11-03T09:28:33.612Z,3.63
2022-11-03T09:31:00.778Z,3.97
2022-11-03T09:33:27.857Z,4.00
2022-11-03T09:35:55.068Z,4.07
2022-11-03T09:38:22.263Z,3.50
2022-11-03T09:43:21.519Z,3.67
2022-11-03T09:45:48.766Z,4.50
2022-11-03T09:48:16.080Z,3.60
2022-11-03T09:50:43.309Z,3.67
2022-11-03T09:53:12.316Z,3.57
2022-11-03T09:55:40.038Z,3.40
2022-11-03T09:58:17.596Z,3.70
2022-11-03T10:00:45.670Z,3.23
2022-11-03T10:03:14.482Z,2.80
2022-11-03T10:05:43.960Z,3.10
2022-11-03T10:08:26.458Z,2.80
2022-11-03T10:10:54.395Z,3.20
2022-11-03T10:13:27.273Z,3.17
2022-11-03T10:15:54.551Z,3.10
2022-11-03T10:18:21.699Z,3.03
2022-11-03T10:20:48.904Z,3.20
2022-11-03T10:23:15.870Z,3.23
2022-11-03T10:25:44.674Z,3.23
2022-11-03T10:28:22.837Z,3.27
2022-11-03T10:33:50.275Z,2.93
2022-11-03T10:36:17.475Z,2.97
2022-11-03T10:38:45.096Z,2.50
2022-11-03T10:41:17.633Z,3.20
2022-11-03T10:44:05.965Z,2.87
2022-11-03T10:46:49.667Z,2.77
2022-11-03T10:49:19.590Z,3.13
2022-11-03T10:51:52.615Z,2.93
2022-11-03T10:54:23.051Z,3.10
2022-11-03T10:56:51.681Z,2.90
2022-11-03T10:59:21.563Z,3.47
2022-11-03T11:01:49.214Z,2.80
2022-11-03T11:04:18.294Z,2.33
2022-11-03T11:06:46.373Z,2.77
2022-11-03T11:09:17.564Z,2.10
2022-11-03T11:12:03.207Z,2.10
2022-11-03T11:14:29.957Z,1.43
2022-11-03T11:17:00.860Z,1.57
2022-11-03T11:19:29.377Z,1.50
2022-11-03T11:21:56.144Z,2.07
2022-11-03T11:24:44.661Z,1.47
2022-11-03T11:27:36.238Z,1.33
2022-11-03T11:30:05.999Z,1.60
2022-11-03T11:32:41.964Z,1.10
2022-11-03T11:35:10.648Z,1.07
2022-11-03T11:37:38.666Z,1.30
2022-11-03T11:40:34.905Z,1.20
2022-11-03T11:43:13.939Z,1.43
2022-11-03T11:46:18.585Z,1.50
2022-11-03T11:48:45.861Z,1.07
2022-11-03T11:51:12.700Z,0.90
2022-11-03T11:53:42.046Z,1.60
2022-11-03T11:56:16.554Z,1.30
2022-11-03T11:58:45.324Z,1.53
2022-11-03T12:01:33.304Z,1.47
2022-11-03T12:04:20.356Z,1.50
2022-11-03T12:06:47.291Z,1.70
2022-11-03T12:09:14.106Z,1.50
2022-11-03T12:11:56.429Z,1.37
2022-11-03T12:14:24.075Z,1.60
2022-11-03T12:16:51.905Z,1.60
2022-11-03T12:19:41.090Z,1.30
2022-11-03T12:22:24.096Z,1.93
2022-11-03T12:24:58.368Z,2.37
2022-11-03T12:27:25.135Z,1.43
2022-11-03T12:29:53.080Z,1.70
2022-11-03T12:32:32.738Z,1.83
2022-11-03T12:35:01.518Z,1.70
2022-11-03T12:37:28.643Z,1.77
2022-11-03T12:39:55.827Z,1.50
2022-11-03T12:42:24.896Z,1.50
2022-11-03T12:44:52.339Z,2.67
2022-11-03T12:47:20.005Z,2.50
2022-11-03T12:49:47.246Z,1.50
2022-11-03T12:52:14.517Z,2.00
2022-11-03T12:54:42.461Z,1.60
2022-11-03T12:57:10.096Z,2.57
2022-11-03T12:59:37.465Z,2.00
2022-11-03T13:02:04.914Z,2.97
2022-11-03T13:04:32.153Z,2.40
2022-11-03T13:06:59.296Z,2.10
2022-11-03T13:09:26.550Z,2.60
2022-11-03T13:12:12.248Z,3.07
2022-11-03T13:14:41.174Z,2.77
2022-11-03T13:17:11.574Z,2.10
2022-11-03T13:19:38.732Z,2.33
2022-11-03T13:22:05.909Z,2.20
2022-11-03T13:24:32.763Z,2.17
2022-11-03T13:26:59.936Z,2.10
2022-11-03T13:29:31.069Z,2.37
2022-11-03T13:32:01.307Z,1.90
2022-11-03T13:34:28.480Z,2.00
2022-11-03T13:36:55.728Z,2.27
2022-11-03T13:39:22.939Z,2.00
2022-11-03T13:41:50.095Z,2.27
2022-11-03T13:44:17.371Z,2.90
2022-11-03T13:46:44.577Z,2.10
2022-11-03T13:51:58.608Z,1.93
2022-11-03T14:00:03.690Z,2.60
2022-11-03T14:05:19.517Z,2.33
2022-11-03T14:07:46.313Z,2.37
2022-11-03T14:10:13.318Z,1.77
2022-11-03T14:12:41.039Z,2.73
2022-11-03T14:15:11.255Z,2.70
2022-11-03T14:17:40.478Z,2.27
2022-11-03T14:20:09.858Z,2.40
2022-11-03T14:22:36.747Z,3.00
2022-11-03T14:25:04.331Z,3.00
2022-11-03T14:27:31.290Z,3.30
2022-11-03T14:29:58.554Z,4.10
2022-11-03T14:32:25.753Z,3.33
2022-11-03T14:34:53.212Z,2.63
2022-11-03T14:37:20.536Z,3.07
2022-11-03T14:39:47.811Z,2.77
2022-11-03T14:42:15.909Z,2.43
2022-11-03T14:44:44.740Z,3.47
2022-11-03T14:47:18.136Z,2.93
2022-11-03T14:49:45.952Z,2.83
2022-11-03T14:52:13.748Z,2.27
2022-11-03T14:54:40.893Z,2.37
2022-11-03T14:57:08.027Z,2.33
2022-11-03T14:59:35.302Z,1.97
2022-11-03T15:02:03.654Z,3.07
2022-11-03T15:04:30.621Z,2.20
2022-11-03T15:06:57.805Z,2.10
2022-11-03T15:09:24.711Z,2.20
2022-11-03T15:11:51.714Z,3.00
2022-11-03T15:14:18.914Z,2.17
2022-11-03T15:16:46.354Z,3.23
2022-11-03T15:19:13.872Z,2.83
2022-11-03T15:21:40.648Z,2.60
2022-11-03T15:26:55.084Z,2.10
2022-11-03T15:29:23.965Z,2.13
2022-11-03T15:31:51.374Z,2.37
2022-11-03T15:34:18.412Z,2.87
2022-11-03T15:36:45.378Z,2.70
2022-11-03T15:39:13.377Z,2.70
2022-11-03T15:41:40.763Z,2.30
2022-11-03T15:44:08.047Z,3.60
2022-11-03T15:46:35.756Z,2.50
2022-11-03T15:49:03.231Z,2.43
2022-11-03T15:51:29.985Z,2.80
2022-11-03T15:53:59.211Z,2.40
2022-11-03T15:56:27.132Z,2.53
2022-11-03T15:58:54.425Z,2.63
2022-11-03T16:01:21.765Z,2.83
2022-11-03T16:03:49.204Z,2.47
2022-11-03T16:06:18.059Z,2.47
2022-11-03T16:08:45.197Z,2.20
2022-11-03T16:11:12.844Z,2.00
2022-11-03T16:13:40.014Z,1.80
2022-11-03T16:16:07.268Z,2.50
2022-11-03T16:18:34.937Z,1.90
2022-11-03T16:21:01.941Z,1.70
2022-11-03T16:23:29.107Z,1.80
2022-11-03T16:25:56.391Z,2.10
2022-11-03T16:28:23.407Z,1.50
2022-11-03T16:30:54.294Z,1.80
2022-11-03T16:33:21.835Z,2.33
2022-11-03T16:35:48.995Z,2.20
2022-11-03T16:38:16.388Z,1.60
2022-11-03T16:40:43.767Z,1.90
2022-11-03T16:43:11.192Z,2.90
2022-11-03T16:45:38.439Z,3.77
2022-11-03T16:48:06.474Z,3.33
2022-11-03T16:50:33.779Z,4.27
2022-11-03T16:53:03.534Z,3.33
2022-11-03T16:55:30.371Z,2.90
2022-11-03T16:57:57.108Z,2.93
2022-11-03T17:00:24.363Z,3.30
2022-11-03T17:02:51.627Z,2.37
2022-11-03T17:05:21.547Z,2.83
2022-11-03T17:07:53.582Z,3.17
2022-11-03T17:10:22.153Z,2.80
2022-11-03T17:12:49.612Z,3.23
2022-11-03T17:15:17.323Z,6.07
2022-11-03T17:17:44.398Z,2.67
2022-11-03T17:20:12.314Z,2.73
2022-11-03T17:22:39.630Z,2.90
2022-11-03T17:25:09.651Z,3.10
2022-11-03T17:27:52.270Z,3.37
2022-11-03T17:30:20.402Z,2.47
2022-11-03T17:32:48.952Z,2.77
2022-11-03T17:35:21.675Z,3.73
2022-11-03T17:37:49.696Z,3.70
2022-11-03T17:40:26.494Z,2.37
2022-11-03T17:42:53.612Z,2.63
2022-11-03T17:45:22.272Z,2.70
2022-11-03T17:47:50.048Z,3.23
2022-11-03T17:50:22.022Z,3.30
2022-11-03T17:52:50.657Z,3.30
2022-11-03T17:55:32.173Z,3.10
2022-11-03T17:58:04.773Z,2.90
2022-11-03T18:00:31.958Z,2.73
2022-11-03T18:02:58.839Z,3.10
2022-11-03T18:05:32.197Z,3.30
2022-11-03T18:08:01.975Z,2.50
2022-11-03T18:10:32.176Z,2.83
2022-11-03T18:13:18.085Z,2.67
2022-11-03T18:15:47.668Z,2.27
2022-11-03T18:18:16.026Z,2.80
2022-11-03T18:20:52.701Z,3.03
2022-11-03T18:23:28.786Z,3.00
2022-11-03T18:25:56.060Z,3.20
2022-11-03T18:28:23.404Z,2.60
2022-11-03T18:30:52.791Z,2.40
2022-11-03T18:33:29.424Z,2.30
2022-11-03T18:35:56.660Z,2.53
2022-11-03T18:38:24.981Z,2.53
2022-11-03T18:40:52.068Z,3.20
2022-11-03T18:43:21.071Z,6.10
2022-11-03T18:45:48.558Z,3.87
2022-11-03T18:48:19.614Z,2.33
2022-11-03T18:50:54.693Z,2.37
2022-11-03T18:53:26.244Z,3.10
2022-11-03T18:55:57.648Z,2.50
2022-11-03T18:58:25.611Z,2.77
2022-11-03T19:00:53.370Z,3.70
2022-11-03T19:03:23.216Z,2.73
2022-11-03T19:05:52.767Z,3.20
2022-11-03T19:08:26.985Z,3.57
2022-11-03T19:10:55.565Z,4.17
2022-11-03T19:13:29.853Z,3.87
2022-11-03T19:15:57.856Z,4.30
2022-11-03T19:18:26.872Z,3.10
2022-11-03T19:20:54.029Z,2.90
2022-11-03T19:23:21.183Z,3.50
2022-11-03T19:25:50.138Z,2.77
2022-11-03T19:28:21.102Z,2.10
2022-11-03T19:30:49.242Z,2.90
2022-11-03T19:33:23.476Z,4.43
2022-11-03T19:35:51.102Z,3.20
2022-11-03T19:38:19.259Z,3.83
2022-11-03T19:41:05.345Z,5.47
2022-11-03T19:43:34.821Z,4.67
2022-11-03T19:46:02.840Z,3.00
2022-11-03T19:48:33.256Z,3.17
2022-11-03T19:51:00.799Z,5.10
2022-11-03T19:53:29.564Z,4.50
2022-11-03T19:55:57.407Z,4.57
2022-11-03T19:58:26.536Z,5.27
2022-11-03T20:00:54.175Z,6.40
2022-11-03T20:03:22.291Z,6.53
2022-11-03T20:05:52.496Z,4.77
2022-11-03T20:08:23.391Z,7.47
2022-11-03T20:10:50.849Z,3.90
2022-11-03T20:13:21.131Z,3.93
2022-11-03T20:15:48.333Z,4.10
2022-11-03T20:18:15.730Z,4.10
2022-11-03T20:20:44.048Z,4.43
2022-11-03T20:23:31.440Z,6.87
2022-11-03T20:25:59.065Z,9.53
2022-11-03T20:28:28.474Z,8.57
2022-11-03T20:31:12.452Z,7.00
2022-11-03T20:33:39.819Z,7.00
2022-11-03T20:36:06.960Z,6.40
2022-11-03T20:38:33.861Z,7.70
2022-11-03T20:41:04.197Z,9.60
2022-11-03T20:43:35.187Z,7.03
2022-11-03T20:46:04.440Z,6.50
2022-11-03T20:48:31.763Z,6.10
2022-11-03T20:50:59.031Z,4.77
2022-11-03T20:53:26.576Z,3.00
2022-11-03T20:55:53.960Z,1.77
2022-11-03T20:58:21.133Z,1.90
2022-11-03T21:00:48.949Z,1.90
2022-11-03T21:03:37.999Z,1.80
2022-11-03T21:06:07.456Z,1.40
2022-11-03T21:08:34.350Z,1.00
2022-11-03T21:11:23.308Z,0.70
2022-11-03T21:13:59.384Z,1.10
2022-11-03T21:16:46.749Z,1.20
2022-11-03T21:19:43.401Z,1.30
2022-11-03T21:22:46.180Z,1.17
2022-11-03T21:25:10.632Z,1.20
2022-11-03T21:27:41.660Z,0.97
2022-11-03T21:30:14.332Z,1.20
2022-11-03T21:32:41.995Z,1.30
2022-11-03T21:35:19.086Z,1.85
2022-11-03T21:37:46.368Z,1.60
2022-11-03T21:40:13.776Z,1.70
2022-11-03T21:42:58.936Z,1.23
2022-11-03T21:45:26.145Z,1.60
2022-11-03T21:48:14.020Z,1.73
2022-11-03T21:50:42.041Z,2.00
2022-11-03T21:53:09.420Z,2.20
2022-11-03T21:55:36.719Z,2.00
2022-11-03T21:58:04.283Z,2.40
2022-11-03T22:00:31.879Z,2.47
2022-11-03T22:03:02.031Z,3.03
2022-11-03T22:05:29.556Z,2.63
2022-11-03T22:07:56.934Z,3.30
2022-11-03T22:10:24.867Z,1.70
2022-11-03T22:12:53.193Z,2.57
2022-11-03T22:15:39.375Z,2.60
2022-11-03T22:18:07.153Z,2.17
2022-11-03T22:20:55.148Z,2.40
2022-11-03T22:23:40.918Z,2.30
2022-11-03T22:26:32.422Z,1.67
2022-11-03T22:29:17.670Z,1.50
2022-11-03T22:31:45.058Z,1.50
2022-11-03T22:34:30.192Z,1.43
2022-11-03T22:36:57.481Z,2.00
2022-11-03T22:39:43.222Z,1.50
2022-11-03T22:42:32.016Z,1.60
2022-11-03T22:45:17.605Z,1.00
2022-11-03T22:47:44.507Z,1.80
2022-11-03T22:50:11.299Z,2.00
2022-11-03T22:52:38.099Z,2.03
2022-11-03T22:55:05.218Z,2.00
2022-11-03T22:57:32.531Z,1.47
2022-11-03T22:59:59.699Z,2.17
2022-11-03T23:02:26.943Z,1.90
2022-11-03T23:04:54.275Z,1.33
2022-11-03T23:07:22.432Z,1.70
2022-11-03T23:09:50.567Z,1.50
2022-11-03T23:12:17.759Z,1.50
2022-11-03T23:15:03.726Z,1.90
2022-11-03T23:17:49.729Z,1.57
2022-11-03T23:20:51.961Z,1.47
2022-11-03T23:23:48.134Z,1.67
2022-11-03T23:26:15.531Z,1.30
2022-11-03T23:28:42.491Z,1.40
2022-11-03T23:31:10.469Z,1.20
2022-11-03T23:33:37.599Z,1.20
2022-11-03T23:36:09.183Z,0.77
2022-11-03T23:38:37.689Z,1.00
2022-11-03T23:41:07.431Z,0.80
2022-11-03T23:43:34.719Z,0.70
2022-11-03T23:46:20.164Z,1.13
2022-11-03T23:48:47.372Z,1.00
2022-11-03T23:51:19.785Z,1.07
2022-11-03T23:53:47.020Z,0.83
2022-11-03T23:56:35.791Z,1.00
2022-11-03T23:59:03.486Z,0.80
